UAE380 OMDB-VHHH
Flight info
| Callsign | UAE380 |
|---|---|
| Flight time | N/A |
| Altitude | 37000 |
| Route | IVURO M677 LALDO B505 NADSO B524 ALPOR M504 TELEM A791 SEBMA/N0489F390 A791 CEA B465 CTG A599 LINSO/K0898S1190 A599 POU R473 SIERA |
| Aircraft | A388/J-SADE2E3FGHIJ3J4J5M1RWXY/LB1D1 |
Departure
| Time | 2026-04-25 02:11 |
|---|---|
| Airport | Dubai International Airport (OMDB) |
Arrival
| Time | N/A |
|---|---|
| Airport | Hong Kong International Airport (VHHH) |
| Time | Latitude | Longitude | Altitude | Speed | Heading |
|---|---|---|---|---|---|
| 2026-04-25 01:43 | 25.24396 | 55.37291 | 39 ft | 0 kts | 211° |
| 2026-04-25 01:57 | 25.24413 | 55.37303 | 39 ft | 2 kts | 211° |
| 2026-04-25 01:57 | 25.24428 | 55.37312 | 38 ft | 2 kts | 211° |
| 2026-04-25 01:57 | 25.24442 | 55.37322 | 37 ft | 2 kts | 205° |
| 2026-04-25 01:58 | 25.24459 | 55.37324 | 38 ft | 2 kts | 179° |
| 2026-04-25 01:58 | 25.24475 | 55.37319 | 37 ft | 2 kts | 157° |
| 2026-04-25 01:58 | 25.24489 | 55.37308 | 35 ft | 2 kts | 139° |
| 2026-04-25 01:58 | 25.24500 | 55.37295 | 35 ft | 2 kts | 133° |
| 2026-04-25 01:59 | 25.24511 | 55.37280 | 35 ft | 2 kts | 127° |
| 2026-04-25 01:59 | 25.24521 | 55.37265 | 37 ft | 2 kts | 128° |
| 2026-04-25 01:59 | 25.24531 | 55.37251 | 35 ft | 2 kts | 126° |
| 2026-04-25 01:59 | 25.24539 | 55.37238 | 34 ft | 0 kts | 121° |
| 2026-04-25 02:02 | 25.24538 | 55.37238 | 37 ft | 1 kts | 121° |
| 2026-04-25 02:02 | 25.24530 | 55.37254 | 37 ft | 4 kts | 121° |
| 2026-04-25 02:03 | 25.24511 | 55.37287 | 38 ft | 6 kts | 121° |
| 2026-04-25 02:03 | 25.24509 | 55.37291 | 38 ft | 7 kts | 121° |
| 2026-04-25 02:03 | 25.24492 | 55.37322 | 39 ft | 8 kts | 121° |
| 2026-04-25 02:04 | 25.24461 | 55.37382 | 40 ft | 10 kts | 118° |
| 2026-04-25 02:04 | 25.24449 | 55.37409 | 41 ft | 10 kts | 111° |
| 2026-04-25 02:05 | 25.24436 | 55.37479 | 42 ft | 11 kts | 93° |
| 2026-04-25 02:05 | 25.24432 | 55.37583 | 44 ft | 15 kts | 95° |
| 2026-04-25 02:05 | 25.24410 | 55.37694 | 46 ft | 15 kts | 110° |
| 2026-04-25 02:05 | 25.24428 | 55.37773 | 47 ft | 5 kts | 21° |
| 2026-04-25 02:06 | 25.24482 | 55.37804 | 46 ft | 12 kts | 35° |
| 2026-04-25 02:06 | 25.24552 | 55.37863 | 47 ft | 14 kts | 38° |
| 2026-04-25 02:06 | 25.24634 | 55.37928 | 47 ft | 11 kts | 31° |
| 2026-04-25 02:06 | 25.24675 | 55.37955 | 47 ft | 8 kts | 31° |
| 2026-04-25 02:07 | 25.24687 | 55.37963 | 47 ft | 0 kts | 31° |
| 2026-04-25 02:08 | 25.24689 | 55.37964 | 47 ft | 5 kts | 31° |
| 2026-04-25 02:08 | 25.24765 | 55.38014 | 47 ft | 14 kts | 22° |
| 2026-04-25 02:08 | 25.24825 | 55.37993 | 46 ft | 8 kts | 301° |
| 2026-04-25 02:09 | 25.24843 | 55.37961 | 45 ft | 0 kts | 304° |
| 2026-04-25 02:10 | 25.24870 | 55.37918 | 44 ft | 25 kts | 304° |
| 2026-04-25 02:10 | 25.25087 | 55.37529 | 35 ft | 96 kts | 301° |
| 2026-04-25 02:10 | 25.25543 | 55.36706 | 27 ft | 150 kts | 301° |
| 2026-04-25 02:10 | 25.26354 | 55.35235 | 274 ft | 176 kts | 301° |
| 2026-04-25 02:11 | 25.26785 | 55.34462 | 659 ft | 176 kts | 301° |
| 2026-04-25 02:11 | 25.27444 | 55.33280 | 1037 ft | 186 kts | 301° |
| 2026-04-25 02:11 | 25.28133 | 55.32038 | 1322 ft | 198 kts | 302° |